Terminal Aerodrome Forecast
Issued by NWS Brownsville, TX

Current Version | Previous Version | Text Only | Print | Product List | Glossary On
Versions: 1 2 3 4 5 6 7 8 9 10 11 12 13
000
FTUS44 KBRO 270525
TAFMFE
TAF
KMFE 270525Z 2706/2806 13005KT P6SM OVC250
     FM270900 19005KT P6SM OVC250
     FM272100 15007KT P6SM BKN250=

USA.gov is the U.S. government's official web portal to all federal, state and local government web resources and services.